Genoa Bluff, Iowa
Current Conditions -  °F | °C
As of 11:52 AM on Sunday 21 Dec 2014 (Local Time) from KCID Reporting Station
Overcast Overcast  
Wind Chill: 29°   Ceiling: 1300
Heat Index: 38°   Visibility: 7mi
Dew Point: 35°   Wind: 15mph
Humidity: 89%   Direction: 170°S
Pressure: 29.98"   Gusts: NA
Location:  41.7846°N, 92.1025°W
Report Text: KCID 211752Z 17013KT 7SM BKN013 OVC020 03/02 A2998 RMK AO2 SLP158 T00330017 10039 20017 58019 $
Loading
Personal Weather Stations






























Interactive Weather Map New forecast layout! Learn more

10-Day Weather Forecast

Advertisements
Track Severe Weather on mobile